sensor_id;sensor_type;location;lat;lon;timestamp;P1;durP1;ratioP1;P2;durP2;ratioP2
14139;SDS011;7150;53.514;9.988;2023-02-01T00:01:19;12.33;;;3.17;;
14139;SDS011;7150;53.514;9.988;2023-02-01T00:03:44;21.20;;;3.83;;
14139;SDS011;7150;53.514;9.988;2023-02-01T00:06:10;19.50;;;3.53;;
14139;SDS011;7150;53.514;9.988;2023-02-01T00:08:35;18.73;;;3.93;;
14139;SDS011;7150;53.514;9.988;2023-02-01T00:11:02;14.60;;;3.80;;
14139;SDS011;7150;53.514;9.988;2023-02-01T00:13:33;20.83;;;3.53;;
14139;SDS011;7150;53.514;9.988;2023-02-01T00:16:07;14.50;;;3.63;;
14139;SDS011;7150;53.514;9.988;2023-02-01T00:18:37;19.73;;;4.20;;
14139;SDS011;7150;53.514;9.988;2023-02-01T00:21:03;21.40;;;5.30;;
14139;SDS011;7150;53.514;9.988;2023-02-01T00:23:32;20.40;;;3.43;;
14139;SDS011;7150;53.514;9.988;2023-02-01T00:26:02;28.07;;;3.97;;
14139;SDS011;7150;53.514;9.988;2023-02-01T00:28:29;18.47;;;3.47;;
14139;SDS011;7150;53.514;9.988;2023-02-01T00:30:56;14.13;;;3.53;;
14139;SDS011;7150;53.514;9.988;2023-02-01T00:33:22;19.10;;;4.37;;
14139;SDS011;7150;53.514;9.988;2023-02-01T00:35:48;19.80;;;4.37;;
14139;SDS011;7150;53.514;9.988;2023-02-01T00:38:13;31.27;;;4.50;;
14139;SDS011;7150;53.514;9.988;2023-02-01T00:40:39;13.77;;;3.53;;
14139;SDS011;7150;53.514;9.988;2023-02-01T00:43:04;20.80;;;4.10;;
14139;SDS011;7150;53.514;9.988;2023-02-01T00:45:30;18.10;;;4.07;;
14139;SDS011;7150;53.514;9.988;2023-02-01T00:47:55;16.13;;;3.70;;
14139;SDS011;7150;53.514;9.988;2023-02-01T00:50:21;24.27;;;4.03;;
14139;SDS011;7150;53.514;9.988;2023-02-01T00:52:46;13.77;;;4.13;;
14139;SDS011;7150;53.514;9.988;2023-02-01T00:55:12;19.83;;;4.37;;
14139;SDS011;7150;53.514;9.988;2023-02-01T00:57:37;18.83;;;3.73;;
14139;SDS011;7150;53.514;9.988;2023-02-01T01:00:03;27.87;;;4.67;;
14139;SDS011;7150;53.514;9.988;2023-02-01T01:02:29;20.17;;;4.33;;
14139;SDS011;7150;53.514;9.988;2023-02-01T01:04:54;22.67;;;4.63;;
14139;SDS011;7150;53.514;9.988;2023-02-01T01:07:20;16.40;;;3.77;;
14139;SDS011;7150;53.514;9.988;2023-02-01T01:09:46;20.00;;;4.07;;
14139;SDS011;7150;53.514;9.988;2023-02-01T01:12:11;19.33;;;3.73;;
14139;SDS011;7150;53.514;9.988;2023-02-01T01:14:37;22.10;;;4.47;;
14139;SDS011;7150;53.514;9.988;2023-02-01T01:17:02;19.63;;;3.97;;
14139;SDS011;7150;53.514;9.988;2023-02-01T01:19:28;22.53;;;3.70;;
14139;SDS011;7150;53.514;9.988;2023-02-01T01:21:53;25.27;;;4.23;;
14139;SDS011;7150;53.514;9.988;2023-02-01T01:24:19;26.33;;;4.60;;
14139;SDS011;7150;53.514;9.988;2023-02-01T01:26:44;23.03;;;4.43;;
14139;SDS011;7150;53.514;9.988;2023-02-01T01:29:10;18.53;;;4.63;;
14139;SDS011;7150;53.514;9.988;2023-02-01T01:31:36;28.43;;;4.70;;
14139;SDS011;7150;53.514;9.988;2023-02-01T01:34:01;22.80;;;5.40;;
14139;SDS011;7150;53.514;9.988;2023-02-01T01:36:27;31.47;;;4.83;;
14139;SDS011;7150;53.514;9.988;2023-02-01T01:38:53;25.13;;;5.73;;
14139;SDS011;7150;53.514;9.988;2023-02-01T01:41:21;23.60;;;5.20;;
14139;SDS011;7150;53.514;9.988;2023-02-01T01:43:53;23.27;;;3.70;;
14139;SDS011;7150;53.514;9.988;2023-02-01T01:49:02;30.90;;;4.80;;
14139;SDS011;7150;53.514;9.988;2023-02-01T01:51:41;26.17;;;4.73;;
14139;SDS011;7150;53.514;9.988;2023-02-01T01:54:20;18.47;;;3.50;;
14139;SDS011;7150;53.514;9.988;2023-02-01T01:56:50;16.63;;;3.70;;
14139;SDS011;7150;53.514;9.988;2023-02-01T01:59:21;16.93;;;3.77;;
14139;SDS011;7150;53.514;9.988;2023-02-01T02:01:49;22.80;;;4.70;;
14139;SDS011;7150;53.514;9.988;2023-02-01T02:04:15;22.40;;;4.43;;
14139;SDS011;7150;53.514;9.988;2023-02-01T02:09:27;19.27;;;3.53;;
14139;SDS011;7150;53.514;9.988;2023-02-01T02:11:52;20.43;;;4.70;;
14139;SDS011;7150;53.514;9.988;2023-02-01T02:14:18;17.27;;;4.17;;
14139;SDS011;7150;53.514;9.988;2023-02-01T02:19:28;25.97;;;5.17;;
14139;SDS011;7150;53.514;9.988;2023-02-01T02:31:06;17.07;;;4.23;;
14139;SDS011;7150;53.514;9.988;2023-02-01T02:39:07;26.70;;;4.33;;
14139;SDS011;7150;53.514;9.988;2023-02-01T02:42:02;26.17;;;4.00;;
14139;SDS011;7150;53.514;9.988;2023-02-01T02:48:03;22.03;;;4.73;;
14139;SDS011;7150;53.514;9.988;2023-02-01T02:50:49;22.13;;;4.03;;
14139;SDS011;7150;53.514;9.988;2023-02-01T02:53:48;21.63;;;4.70;;
14139;SDS011;7150;53.514;9.988;2023-02-01T02:56:40;22.37;;;4.47;;
14139;SDS011;7150;53.514;9.988;2023-02-01T02:59:25;22.77;;;4.23;;
14139;SDS011;7150;53.514;9.988;2023-02-01T03:02:11;22.87;;;5.17;;
14139;SDS011;7150;53.514;9.988;2023-02-01T03:04:57;20.87;;;4.63;;
14139;SDS011;7150;53.514;9.988;2023-02-01T03:13:10;20.57;;;4.53;;
14139;SDS011;7150;53.514;9.988;2023-02-01T03:15:42;20.23;;;3.73;;
14139;SDS011;7150;53.514;9.988;2023-02-01T03:18:19;20.40;;;3.93;;
14139;SDS011;7150;53.514;9.988;2023-02-01T03:20:51;19.03;;;3.30;;
14139;SDS011;7150;53.514;9.988;2023-02-01T03:23:21;17.60;;;3.70;;
14139;SDS011;7150;53.514;9.988;2023-02-01T03:25:51;21.60;;;4.00;;
14139;SDS011;7150;53.514;9.988;2023-02-01T03:28:19;19.27;;;3.67;;
14139;SDS011;7150;53.514;9.988;2023-02-01T03:30:50;14.23;;;3.23;;
14139;SDS011;7150;53.514;9.988;2023-02-01T03:33:17;12.40;;;3.07;;
14139;SDS011;7150;53.514;9.988;2023-02-01T03:38:29;17.57;;;2.50;;
14139;SDS011;7150;53.514;9.988;2023-02-01T03:41:03;10.00;;;1.60;;
14139;SDS011;7150;53.514;9.988;2023-02-01T03:43:46;6.17;;;2.00;;
14139;SDS011;7150;53.514;9.988;2023-02-01T03:46:27;7.87;;;1.93;;
14139;SDS011;7150;53.514;9.988;2023-02-01T03:48:59;6.50;;;1.93;;
14139;SDS011;7150;53.514;9.988;2023-02-01T03:51:28;5.50;;;1.53;;
14139;SDS011;7150;53.514;9.988;2023-02-01T03:53:55;10.20;;;2.57;;
14139;SDS011;7150;53.514;9.988;2023-02-01T03:56:21;10.87;;;2.50;;
14139;SDS011;7150;53.514;9.988;2023-02-01T03:58:50;13.73;;;2.83;;
14139;SDS011;7150;53.514;9.988;2023-02-01T04:01:26;12.43;;;2.60;;
14139;SDS011;7150;53.514;9.988;2023-02-01T04:03:52;9.20;;;2.90;;
14139;SDS011;7150;53.514;9.988;2023-02-01T04:06:18;13.17;;;2.73;;
14139;SDS011;7150;53.514;9.988;2023-02-01T04:08:43;16.50;;;3.00;;
14139;SDS011;7150;53.514;9.988;2023-02-01T04:11:09;8.47;;;2.30;;
14139;SDS011;7150;53.514;9.988;2023-02-01T04:13:34;9.03;;;1.90;;
14139;SDS011;7150;53.514;9.988;2023-02-01T04:16:00;10.20;;;2.63;;
14139;SDS011;7150;53.514;9.988;2023-02-01T04:18:25;9.67;;;2.20;;
14139;SDS011;7150;53.514;9.988;2023-02-01T04:20:51;14.67;;;2.50;;
14139;SDS011;7150;53.514;9.988;2023-02-01T04:23:16;13.77;;;2.50;;
14139;SDS011;7150;53.514;9.988;2023-02-01T04:25:42;15.30;;;2.77;;
14139;SDS011;7150;53.514;9.988;2023-02-01T04:28:07;9.17;;;2.33;;
14139;SDS011;7150;53.514;9.988;2023-02-01T04:30:33;15.63;;;3.20;;
14139;SDS011;7150;53.514;9.988;2023-02-01T04:32:58;16.00;;;2.60;;
14139;SDS011;7150;53.514;9.988;2023-02-01T04:35:24;10.73;;;2.23;;
14139;SDS011;7150;53.514;9.988;2023-02-01T04:37:49;10.93;;;2.30;;
14139;SDS011;7150;53.514;9.988;2023-02-01T04:40:15;16.97;;;2.77;;
14139;SDS011;7150;53.514;9.988;2023-02-01T04:42:40;14.50;;;2.67;;
14139;SDS011;7150;53.514;9.988;2023-02-01T04:45:06;11.77;;;2.80;;
14139;SDS011;7150;53.514;9.988;2023-02-01T04:47:32;9.57;;;2.43;;
14139;SDS011;7150;53.514;9.988;2023-02-01T04:49:57;8.73;;;2.20;;
14139;SDS011;7150;53.514;9.988;2023-02-01T04:52:23;8.97;;;2.50;;
14139;SDS011;7150;53.514;9.988;2023-02-01T04:54:48;9.00;;;2.03;;
14139;SDS011;7150;53.514;9.988;2023-02-01T04:57:14;4.27;;;1.53;;
14139;SDS011;7150;53.514;9.988;2023-02-01T04:59:39;6.90;;;2.03;;
14139;SDS011;7150;53.514;9.988;2023-02-01T05:02:05;12.80;;;2.40;;
14139;SDS011;7150;53.514;9.988;2023-02-01T05:04:30;11.43;;;2.40;;
14139;SDS011;7150;53.514;9.988;2023-02-01T05:06:56;9.93;;;1.80;;
14139;SDS011;7150;53.514;9.988;2023-02-01T05:09:21;7.60;;;2.30;;
14139;SDS011;7150;53.514;9.988;2023-02-01T05:11:47;5.43;;;1.70;;
14139;SDS011;7150;53.514;9.988;2023-02-01T05:14:31;7.60;;;1.33;;
14139;SDS011;7150;53.514;9.988;2023-02-01T05:16:57;4.93;;;1.20;;
14139;SDS011;7150;53.514;9.988;2023-02-01T05:19:22;5.60;;;1.47;;
14139;SDS011;7150;53.514;9.988;2023-02-01T05:21:48;4.83;;;1.43;;
14139;SDS011;7150;53.514;9.988;2023-02-01T05:24:13;5.13;;;1.17;;
14139;SDS011;7150;53.514;9.988;2023-02-01T05:26:41;4.43;;;1.00;;
14139;SDS011;7150;53.514;9.988;2023-02-01T05:29:08;4.17;;;0.90;;
14139;SDS011;7150;53.514;9.988;2023-02-01T05:31:35;1.00;;;0.60;;
14139;SDS011;7150;53.514;9.988;2023-02-01T05:34:01;2.33;;;0.97;;
14139;SDS011;7150;53.514;9.988;2023-02-01T05:36:26;1.30;;;0.70;;
14139;SDS011;7150;53.514;9.988;2023-02-01T05:38:52;2.77;;;1.10;;
14139;SDS011;7150;53.514;9.988;2023-02-01T05:41:17;1.47;;;0.70;;
14139;SDS011;7150;53.514;9.988;2023-02-01T05:43:43;2.27;;;0.87;;
14139;SDS011;7150;53.514;9.988;2023-02-01T05:46:08;2.00;;;0.77;;
14139;SDS011;7150;53.514;9.988;2023-02-01T05:48:38;4.17;;;0.70;;
14139;SDS011;7150;53.514;9.988;2023-02-01T05:51:04;2.80;;;1.20;;
14139;SDS011;7150;53.514;9.988;2023-02-01T05:53:30;1.97;;;0.70;;
14139;SDS011;7150;53.514;9.988;2023-02-01T05:55:55;4.33;;;1.30;;
14139;SDS011;7150;53.514;9.988;2023-02-01T05:58:21;2.90;;;0.90;;
14139;SDS011;7150;53.514;9.988;2023-02-01T06:00:46;4.77;;;0.90;;
14139;SDS011;7150;53.514;9.988;2023-02-01T06:03:12;3.20;;;1.03;;
14139;SDS011;7150;53.514;9.988;2023-02-01T06:05:37;1.10;;;0.70;;
14139;SDS011;7150;53.514;9.988;2023-02-01T06:08:03;2.47;;;0.80;;
14139;SDS011;7150;53.514;9.988;2023-02-01T06:10:28;2.23;;;0.83;;
14139;SDS011;7150;53.514;9.988;2023-02-01T06:12:54;3.73;;;1.20;;
14139;SDS011;7150;53.514;9.988;2023-02-01T06:15:19;2.50;;;0.80;;
14139;SDS011;7150;53.514;9.988;2023-02-01T06:17:45;3.37;;;0.97;;
14139;SDS011;7150;53.514;9.988;2023-02-01T06:20:11;1.50;;;0.90;;
14139;SDS011;7150;53.514;9.988;2023-02-01T06:22:38;1.63;;;1.10;;
14139;SDS011;7150;53.514;9.988;2023-02-01T06:25:05;4.33;;;1.73;;
14139;SDS011;7150;53.514;9.988;2023-02-01T06:27:31;5.50;;;1.30;;
14139;SDS011;7150;53.514;9.988;2023-02-01T06:29:57;6.70;;;1.30;;
14139;SDS011;7150;53.514;9.988;2023-02-01T06:32:22;4.50;;;1.57;;
14139;SDS011;7150;53.514;9.988;2023-02-01T06:34:48;6.57;;;1.30;;
14139;SDS011;7150;53.514;9.988;2023-02-01T06:37:14;5.40;;;1.63;;
14139;SDS011;7150;53.514;9.988;2023-02-01T06:39:39;9.40;;;1.97;;
14139;SDS011;7150;53.514;9.988;2023-02-01T06:42:05;10.90;;;1.83;;
14139;SDS011;7150;53.514;9.988;2023-02-01T06:44:30;10.87;;;1.53;;
14139;SDS011;7150;53.514;9.988;2023-02-01T06:46:56;7.43;;;1.80;;
14139;SDS011;7150;53.514;9.988;2023-02-01T06:49:21;11.47;;;1.90;;
14139;SDS011;7150;53.514;9.988;2023-02-01T06:51:47;9.30;;;1.90;;
14139;SDS011;7150;53.514;9.988;2023-02-01T06:54:12;13.93;;;2.47;;
14139;SDS011;7150;53.514;9.988;2023-02-01T06:56:38;13.30;;;2.53;;
14139;SDS011;7150;53.514;9.988;2023-02-01T06:59:04;8.67;;;2.30;;
14139;SDS011;7150;53.514;9.988;2023-02-01T07:01:31;9.50;;;2.13;;
14139;SDS011;7150;53.514;9.988;2023-02-01T07:03:56;12.03;;;2.43;;
14139;SDS011;7150;53.514;9.988;2023-02-01T07:06:22;9.63;;;2.37;;
14139;SDS011;7150;53.514;9.988;2023-02-01T07:08:47;9.97;;;2.50;;
14139;SDS011;7150;53.514;9.988;2023-02-01T07:11:14;12.67;;;2.70;;
14139;SDS011;7150;53.514;9.988;2023-02-01T07:13:40;11.53;;;2.70;;
14139;SDS011;7150;53.514;9.988;2023-02-01T07:16:07;8.60;;;2.40;;
14139;SDS011;7150;53.514;9.988;2023-02-01T07:18:36;10.80;;;2.37;;
14139;SDS011;7150;53.514;9.988;2023-02-01T07:21:02;17.30;;;3.47;;
14139;SDS011;7150;53.514;9.988;2023-02-01T07:23:27;18.60;;;3.37;;
14139;SDS011;7150;53.514;9.988;2023-02-01T07:25:54;13.90;;;3.03;;
14139;SDS011;7150;53.514;9.988;2023-02-01T07:28:20;18.67;;;3.33;;
14139;SDS011;7150;53.514;9.988;2023-02-01T07:30:46;16.17;;;3.10;;
14139;SDS011;7150;53.514;9.988;2023-02-01T07:33:16;14.33;;;3.50;;
14139;SDS011;7150;53.514;9.988;2023-02-01T07:35:45;12.53;;;2.77;;
14139;SDS011;7150;53.514;9.988;2023-02-01T07:38:11;21.20;;;3.40;;
14139;SDS011;7150;53.514;9.988;2023-02-01T07:40:36;12.67;;;2.90;;
14139;SDS011;7150;53.514;9.988;2023-02-01T07:43:02;12.33;;;4.03;;
14139;SDS011;7150;53.514;9.988;2023-02-01T07:45:27;18.87;;;4.13;;
14139;SDS011;7150;53.514;9.988;2023-02-01T07:47:53;20.30;;;3.53;;
14139;SDS011;7150;53.514;9.988;2023-02-01T07:50:18;16.43;;;3.87;;
14139;SDS011;7150;53.514;9.988;2023-02-01T07:52:44;23.77;;;3.50;;
14139;SDS011;7150;53.514;9.988;2023-02-01T07:55:09;20.63;;;4.47;;
14139;SDS011;7150;53.514;9.988;2023-02-01T07:57:35;23.87;;;3.87;;
14139;SDS011;7150;53.514;9.988;2023-02-01T08:00:01;17.57;;;4.13;;
14139;SDS011;7150;53.514;9.988;2023-02-01T08:02:45;27.93;;;3.93;;
14139;SDS011;7150;53.514;9.988;2023-02-01T08:05:11;21.83;;;4.17;;
14139;SDS011;7150;53.514;9.988;2023-02-01T08:07:36;12.00;;;3.67;;
14139;SDS011;7150;53.514;9.988;2023-02-01T08:10:02;19.63;;;3.63;;
14139;SDS011;7150;53.514;9.988;2023-02-01T08:12:30;13.53;;;3.33;;
14139;SDS011;7150;53.514;9.988;2023-02-01T08:14:56;20.73;;;3.67;;
14139;SDS011;7150;53.514;9.988;2023-02-01T08:17:21;21.50;;;3.83;;
14139;SDS011;7150;53.514;9.988;2023-02-01T08:19:47;21.60;;;3.80;;
14139;SDS011;7150;53.514;9.988;2023-02-01T08:22:12;19.13;;;3.90;;
14139;SDS011;7150;53.514;9.988;2023-02-01T08:24:37;29.90;;;4.40;;
14139;SDS011;7150;53.514;9.988;2023-02-01T08:27:05;24.50;;;4.57;;
14139;SDS011;7150;53.514;9.988;2023-02-01T08:29:31;18.57;;;4.30;;
14139;SDS011;7150;53.514;9.988;2023-02-01T08:31:56;25.67;;;7.53;;
14139;SDS011;7150;53.514;9.988;2023-02-01T08:34:22;28.30;;;7.33;;
14139;SDS011;7150;53.514;9.988;2023-02-01T08:36:47;20.67;;;5.33;;
14139;SDS011;7150;53.514;9.988;2023-02-01T08:39:13;19.87;;;4.77;;
14139;SDS011;7150;53.514;9.988;2023-02-01T08:41:38;18.13;;;3.33;;
14139;SDS011;7150;53.514;9.988;2023-02-01T08:44:05;16.37;;;3.57;;
14139;SDS011;7150;53.514;9.988;2023-02-01T08:46:30;18.03;;;3.90;;
14139;SDS011;7150;53.514;9.988;2023-02-01T08:48:56;21.17;;;4.70;;
14139;SDS011;7150;53.514;9.988;2023-02-01T08:51:22;21.73;;;3.57;;
14139;SDS011;7150;53.514;9.988;2023-02-01T08:53:48;20.27;;;3.40;;
14139;SDS011;7150;53.514;9.988;2023-02-01T08:56:15;21.20;;;4.77;;
14139;SDS011;7150;53.514;9.988;2023-02-01T08:58:41;17.77;;;4.10;;
14139;SDS011;7150;53.514;9.988;2023-02-01T09:01:08;18.97;;;3.80;;
14139;SDS011;7150;53.514;9.988;2023-02-01T09:03:39;18.77;;;3.23;;
14139;SDS011;7150;53.514;9.988;2023-02-01T09:06:05;16.47;;;3.40;;
14139;SDS011;7150;53.514;9.988;2023-02-01T09:08:33;20.73;;;4.53;;
14139;SDS011;7150;53.514;9.988;2023-02-01T09:11:00;17.33;;;3.40;;
14139;SDS011;7150;53.514;9.988;2023-02-01T09:13:26;16.53;;;3.50;;
14139;SDS011;7150;53.514;9.988;2023-02-01T09:15:52;19.20;;;3.70;;
14139;SDS011;7150;53.514;9.988;2023-02-01T09:18:18;15.37;;;2.83;;
14139;SDS011;7150;53.514;9.988;2023-02-01T09:20:44;20.03;;;3.43;;
14139;SDS011;7150;53.514;9.988;2023-02-01T09:23:10;22.03;;;3.90;;
14139;SDS011;7150;53.514;9.988;2023-02-01T09:25:36;13.23;;;3.30;;
14139;SDS011;7150;53.514;9.988;2023-02-01T09:28:03;14.67;;;2.83;;
14139;SDS011;7150;53.514;9.988;2023-02-01T09:30:30;12.00;;;3.57;;
14139;SDS011;7150;53.514;9.988;2023-02-01T09:33:00;25.00;;;4.70;;
14139;SDS011;7150;53.514;9.988;2023-02-01T09:35:25;16.73;;;3.03;;
14139;SDS011;7150;53.514;9.988;2023-02-01T09:37:52;18.93;;;3.43;;
14139;SDS011;7150;53.514;9.988;2023-02-01T09:40:18;19.37;;;3.70;;
14139;SDS011;7150;53.514;9.988;2023-02-01T09:48:20;17.87;;;3.23;;
14139;SDS011;7150;53.514;9.988;2023-02-01T09:50:54;16.27;;;3.60;;
14139;SDS011;7150;53.514;9.988;2023-02-01T09:56:11;24.87;;;3.73;;
14139;SDS011;7150;53.514;9.988;2023-02-01T09:58:54;21.77;;;3.43;;
14139;SDS011;7150;53.514;9.988;2023-02-01T10:01:22;16.97;;;3.83;;
14139;SDS011;7150;53.514;9.988;2023-02-01T10:03:49;19.47;;;3.53;;
14139;SDS011;7150;53.514;9.988;2023-02-01T10:06:27;21.17;;;3.73;;
14139;SDS011;7150;53.514;9.988;2023-02-01T10:12:26;13.40;;;2.53;;
14139;SDS011;7150;53.514;9.988;2023-02-01T10:17:51;15.00;;;3.27;;
14139;SDS011;7150;53.514;9.988;2023-02-01T10:23:25;20.77;;;3.87;;
14139;SDS011;7150;53.514;9.988;2023-02-01T10:28:44;16.53;;;3.30;;
14139;SDS011;7150;53.514;9.988;2023-02-01T10:31:13;13.50;;;3.27;;
14139;SDS011;7150;53.514;9.988;2023-02-01T10:33:44;22.93;;;4.87;;
14139;SDS011;7150;53.514;9.988;2023-02-01T10:36:20;17.27;;;3.40;;
14139;SDS011;7150;53.514;9.988;2023-02-01T10:38:59;14.17;;;3.30;;
14139;SDS011;7150;53.514;9.988;2023-02-01T10:41:29;12.50;;;2.90;;
14139;SDS011;7150;53.514;9.988;2023-02-01T10:43:58;15.53;;;3.20;;
14139;SDS011;7150;53.514;9.988;2023-02-01T10:46:25;17.93;;;2.80;;
14139;SDS011;7150;53.514;9.988;2023-02-01T10:48:54;14.67;;;2.97;;
14139;SDS011;7150;53.514;9.988;2023-02-01T10:51:22;21.77;;;4.57;;
14139;SDS011;7150;53.514;9.988;2023-02-01T10:53:57;20.40;;;3.37;;
14139;SDS011;7150;53.514;9.988;2023-02-01T10:56:28;17.30;;;3.87;;
14139;SDS011;7150;53.514;9.988;2023-02-01T10:59:02;16.03;;;3.13;;
14139;SDS011;7150;53.514;9.988;2023-02-01T11:01:36;10.43;;;2.23;;
14139;SDS011;7150;53.514;9.988;2023-02-01T11:04:05;17.33;;;3.60;;
14139;SDS011;7150;53.514;9.988;2023-02-01T11:06:45;12.00;;;3.07;;
14139;SDS011;7150;53.514;9.988;2023-02-01T11:09:18;14.33;;;4.00;;
14139;SDS011;7150;53.514;9.988;2023-02-01T11:14:15;14.77;;;3.20;;
14139;SDS011;7150;53.514;9.988;2023-02-01T11:17:33;14.73;;;3.20;;
14139;SDS011;7150;53.514;9.988;2023-02-01T11:19:38;18.67;;;4.33;;
14139;SDS011;7150;53.514;9.988;2023-02-01T11:22:08;19.00;;;3.37;;
14139;SDS011;7150;53.514;9.988;2023-02-01T11:24:37;15.07;;;2.50;;
14139;SDS011;7150;53.514;9.988;2023-02-01T11:27:05;18.50;;;3.43;;
14139;SDS011;7150;53.514;9.988;2023-02-01T11:29:38;17.83;;;3.43;;
14139;SDS011;7150;53.514;9.988;2023-02-01T11:32:10;16.43;;;3.20;;
14139;SDS011;7150;53.514;9.988;2023-02-01T11:34:39;17.13;;;3.57;;
14139;SDS011;7150;53.514;9.988;2023-02-01T11:39:56;16.33;;;3.30;;
14139;SDS011;7150;53.514;9.988;2023-02-01T11:42:24;18.63;;;3.53;;
14139;SDS011;7150;53.514;9.988;2023-02-01T11:44:51;14.50;;;3.03;;
14139;SDS011;7150;53.514;9.988;2023-02-01T11:47:38;16.97;;;3.00;;
14139;SDS011;7150;53.514;9.988;2023-02-01T11:50:09;9.57;;;2.60;;
14139;SDS011;7150;53.514;9.988;2023-02-01T12:01:08;14.07;;;2.73;;
14139;SDS011;7150;53.514;9.988;2023-02-01T12:06:29;11.70;;;2.53;;
14139;SDS011;7150;53.514;9.988;2023-02-01T12:09:08;15.03;;;3.03;;
14139;SDS011;7150;53.514;9.988;2023-02-01T12:14:41;9.77;;;2.83;;
14139;SDS011;7150;53.514;9.988;2023-02-01T12:26:11;10.20;;;2.20;;
14139;SDS011;7150;53.514;9.988;2023-02-01T12:29:02;8.80;;;1.97;;
14139;SDS011;7150;53.514;9.988;2023-02-01T12:37:45;3.27;;;0.77;;
14139;SDS011;7150;53.514;9.988;2023-02-01T12:40:32;2.93;;;1.40;;
14139;SDS011;7150;53.514;9.988;2023-02-01T12:43:17;1.23;;;0.60;;
14139;SDS011;7150;53.514;9.988;2023-02-01T12:45:55;4.30;;;1.10;;
14139;SDS011;7150;53.514;9.988;2023-02-01T12:50:53;5.10;;;0.97;;
14139;SDS011;7150;53.514;9.988;2023-02-01T12:55:50;1.63;;;0.97;;
14139;SDS011;7150;53.514;9.988;2023-02-01T13:04:02;1.60;;;0.60;;
14139;SDS011;7150;53.514;9.988;2023-02-01T13:06:43;0.80;;;0.60;;
14139;SDS011;7150;53.514;9.988;2023-02-01T13:09:20;0.67;;;0.50;;
14139;SDS011;7150;53.514;9.988;2023-02-01T13:11:52;1.60;;;0.77;;
14139;SDS011;7150;53.514;9.988;2023-02-01T13:14:40;2.30;;;0.73;;
14139;SDS011;7150;53.514;9.988;2023-02-01T13:17:21;0.60;;;0.60;;
14139;SDS011;7150;53.514;9.988;2023-02-01T13:22:17;0.70;;;0.57;;
14139;SDS011;7150;53.514;9.988;2023-02-01T13:24:59;1.00;;;0.57;;
14139;SDS011;7150;53.514;9.988;2023-02-01T13:27:28;1.10;;;0.80;;
14139;SDS011;7150;53.514;9.988;2023-02-01T13:35:27;2.63;;;0.97;;
14139;SDS011;7150;53.514;9.988;2023-02-01T13:38:24;1.50;;;0.50;;
14139;SDS011;7150;53.514;9.988;2023-02-01T13:41:20;0.80;;;0.47;;
14139;SDS011;7150;53.514;9.988;2023-02-01T13:43:52;1.77;;;0.53;;
14139;SDS011;7150;53.514;9.988;2023-02-01T13:46:21;1.23;;;0.70;;
14139;SDS011;7150;53.514;9.988;2023-02-01T13:48:49;2.30;;;0.70;;
14139;SDS011;7150;53.514;9.988;2023-02-01T13:52:02;1.30;;;0.90;;
14139;SDS011;7150;53.514;9.988;2023-02-01T13:56:57;4.40;;;2.57;;
14139;SDS011;7150;53.514;9.988;2023-02-01T14:05:08;3.53;;;1.00;;
14139;SDS011;7150;53.514;9.988;2023-02-01T14:13:33;3.70;;;0.87;;
14139;SDS011;7150;53.514;9.988;2023-02-01T14:21:13;10.13;;;1.70;;
14139;SDS011;7150;53.514;9.988;2023-02-01T14:29:08;5.93;;;1.60;;
14139;SDS011;7150;53.514;9.988;2023-02-01T14:31:52;3.13;;;1.40;;
14139;SDS011;7150;53.514;9.988;2023-02-01T14:34:29;6.13;;;1.80;;
14139;SDS011;7150;53.514;9.988;2023-02-01T14:37:02;9.63;;;1.50;;
14139;SDS011;7150;53.514;9.988;2023-02-01T14:39:32;12.90;;;1.77;;
14139;SDS011;7150;53.514;9.988;2023-02-01T14:42:28;5.47;;;2.07;;
14139;SDS011;7150;53.514;9.988;2023-02-01T14:44:55;6.07;;;1.90;;
14139;SDS011;7150;53.514;9.988;2023-02-01T14:47:40;5.57;;;1.43;;
14139;SDS011;7150;53.514;9.988;2023-02-01T14:58:34;16.27;;;2.07;;
14139;SDS011;7150;53.514;9.988;2023-02-01T15:01:23;7.63;;;2.40;;
14139;SDS011;7150;53.514;9.988;2023-02-01T15:06:56;11.13;;;1.77;;
14139;SDS011;7150;53.514;9.988;2023-02-01T15:09:45;3.60;;;1.60;;
14139;SDS011;7150;53.514;9.988;2023-02-01T15:19:54;9.47;;;1.90;;
14139;SDS011;7150;53.514;9.988;2023-02-01T15:22:21;10.40;;;1.47;;
14139;SDS011;7150;53.514;9.988;2023-02-01T15:24:54;9.93;;;2.13;;
14139;SDS011;7150;53.514;9.988;2023-02-01T15:27:21;7.47;;;2.20;;
14139;SDS011;7150;53.514;9.988;2023-02-01T15:29:47;10.27;;;2.20;;
14139;SDS011;7150;53.514;9.988;2023-02-01T15:32:31;8.33;;;2.10;;
14139;SDS011;7150;53.514;9.988;2023-02-01T15:34:59;5.93;;;2.03;;
14139;SDS011;7150;53.514;9.988;2023-02-01T15:37:26;2.93;;;1.40;;
14139;SDS011;7150;53.514;9.988;2023-02-01T15:40:03;5.43;;;1.90;;
14139;SDS011;7150;53.514;9.988;2023-02-01T15:42:28;15.77;;;2.07;;
14139;SDS011;7150;53.514;9.988;2023-02-01T15:44:54;8.83;;;1.77;;
14139;SDS011;7150;53.514;9.988;2023-02-01T15:47:23;10.93;;;2.07;;
14139;SDS011;7150;53.514;9.988;2023-02-01T15:49:51;8.47;;;2.17;;
14139;SDS011;7150;53.514;9.988;2023-02-01T15:52:25;6.67;;;1.97;;
14139;SDS011;7150;53.514;9.988;2023-02-01T15:54:53;6.93;;;1.63;;
14139;SDS011;7150;53.514;9.988;2023-02-01T15:57:23;11.90;;;2.73;;
14139;SDS011;7150;53.514;9.988;2023-02-01T15:59:57;8.80;;;1.77;;
14139;SDS011;7150;53.514;9.988;2023-02-01T16:04:53;17.27;;;3.80;;
14139;SDS011;7150;53.514;9.988;2023-02-01T16:07:26;6.13;;;1.73;;
14139;SDS011;7150;53.514;9.988;2023-02-01T16:09:54;13.97;;;2.63;;
14139;SDS011;7150;53.514;9.988;2023-02-01T16:12:31;9.97;;;2.53;;
14139;SDS011;7150;53.514;9.988;2023-02-01T16:15:02;12.57;;;2.90;;
14139;SDS011;7150;53.514;9.988;2023-02-01T16:17:27;10.00;;;2.57;;
14139;SDS011;7150;53.514;9.988;2023-02-01T16:19:53;16.57;;;3.17;;
14139;SDS011;7150;53.514;9.988;2023-02-01T16:22:19;11.33;;;2.30;;
14139;SDS011;7150;53.514;9.988;2023-02-01T16:24:44;11.87;;;2.23;;
14139;SDS011;7150;53.514;9.988;2023-02-01T16:27:10;9.73;;;2.47;;
14139;SDS011;7150;53.514;9.988;2023-02-01T16:29:35;10.73;;;2.37;;
14139;SDS011;7150;53.514;9.988;2023-02-01T16:32:01;11.10;;;2.73;;
14139;SDS011;7150;53.514;9.988;2023-02-01T16:34:26;16.30;;;2.53;;
14139;SDS011;7150;53.514;9.988;2023-02-01T16:36:52;9.63;;;2.73;;
14139;SDS011;7150;53.514;9.988;2023-02-01T16:39:20;19.13;;;3.00;;
14139;SDS011;7150;53.514;9.988;2023-02-01T16:41:46;21.40;;;4.10;;
14139;SDS011;7150;53.514;9.988;2023-02-01T16:44:11;16.20;;;4.33;;
14139;SDS011;7150;53.514;9.988;2023-02-01T16:46:40;20.83;;;3.20;;
14139;SDS011;7150;53.514;9.988;2023-02-01T16:49:18;21.93;;;3.80;;
14139;SDS011;7150;53.514;9.988;2023-02-01T16:51:49;16.30;;;3.70;;
14139;SDS011;7150;53.514;9.988;2023-02-01T16:54:17;26.73;;;3.43;;
14139;SDS011;7150;53.514;9.988;2023-02-01T16:56:43;19.00;;;4.30;;
14139;SDS011;7150;53.514;9.988;2023-02-01T16:59:10;20.03;;;4.40;;
14139;SDS011;7150;53.514;9.988;2023-02-01T17:01:35;24.97;;;4.60;;
14139;SDS011;7150;53.514;9.988;2023-02-01T17:04:06;19.10;;;3.87;;
14139;SDS011;7150;53.514;9.988;2023-02-01T17:06:31;27.27;;;4.63;;
14139;SDS011;7150;53.514;9.988;2023-02-01T17:08:57;26.87;;;4.87;;
14139;SDS011;7150;53.514;9.988;2023-02-01T17:11:24;15.73;;;4.40;;
14139;SDS011;7150;53.514;9.988;2023-02-01T17:13:50;25.73;;;4.63;;
14139;SDS011;7150;53.514;9.988;2023-02-01T17:18:46;22.30;;;4.90;;
14139;SDS011;7150;53.514;9.988;2023-02-01T17:21:18;19.30;;;4.33;;
14139;SDS011;7150;53.514;9.988;2023-02-01T17:23:44;15.37;;;4.63;;
14139;SDS011;7150;53.514;9.988;2023-02-01T17:26:10;15.90;;;3.20;;
14139;SDS011;7150;53.514;9.988;2023-02-01T17:28:36;20.87;;;3.70;;
14139;SDS011;7150;53.514;9.988;2023-02-01T17:31:02;26.40;;;4.10;;
14139;SDS011;7150;53.514;9.988;2023-02-01T17:33:33;18.37;;;4.73;;
14139;SDS011;7150;53.514;9.988;2023-02-01T17:36:00;24.43;;;3.47;;
14139;SDS011;7150;53.514;9.988;2023-02-01T17:38:27;31.70;;;5.03;;
14139;SDS011;7150;53.514;9.988;2023-02-01T17:40:52;19.43;;;4.17;;
14139;SDS011;7150;53.514;9.988;2023-02-01T17:43:21;15.50;;;3.93;;